sensor_id;sensor_type;location;lat;lon;timestamp;temperature;humidity
5061;DHT22;2549;52.128;21.068;2023-08-06T00:01:12;22.50;99.90
5061;DHT22;2549;52.128;21.068;2023-08-06T00:03:39;22.60;99.90
5061;DHT22;2549;52.128;21.068;2023-08-06T00:06:06;22.60;99.90
5061;DHT22;2549;52.128;21.068;2023-08-06T00:08:33;22.50;99.90
5061;DHT22;2549;52.128;21.068;2023-08-06T00:11:00;22.50;99.90
5061;DHT22;2549;52.128;21.068;2023-08-06T00:13:27;22.50;99.90
5061;DHT22;2549;52.128;21.068;2023-08-06T00:15:54;22.50;99.90
5061;DHT22;2549;52.128;21.068;2023-08-06T00:18:20;22.40;99.90
5061;DHT22;2549;52.128;21.068;2023-08-06T00:20:47;22.40;99.90
5061;DHT22;2549;52.128;21.068;2023-08-06T00:23:14;22.50;99.90
5061;DHT22;2549;52.128;21.068;2023-08-06T00:25:59;22.50;99.90
5061;DHT22;2549;52.128;21.068;2023-08-06T00:28:25;22.50;99.90
5061;DHT22;2549;52.128;21.068;2023-08-06T00:30:56;22.50;99.90
5061;DHT22;2549;52.128;21.068;2023-08-06T00:33:24;22.50;99.90
5061;DHT22;2549;52.128;21.068;2023-08-06T00:35:51;22.50;99.90
5061;DHT22;2549;52.128;21.068;2023-08-06T00:38:18;22.50;99.90
5061;DHT22;2549;52.128;21.068;2023-08-06T00:40:45;22.30;99.90
5061;DHT22;2549;52.128;21.068;2023-08-06T00:43:11;22.30;99.90
5061;DHT22;2549;52.128;21.068;2023-08-06T00:45:38;22.40;99.90
5061;DHT22;2549;52.128;21.068;2023-08-06T00:48:06;22.50;99.90
5061;DHT22;2549;52.128;21.068;2023-08-06T00:50:34;22.40;99.90
5061;DHT22;2549;52.128;21.068;2023-08-06T00:53:01;22.30;99.90
5061;DHT22;2549;52.128;21.068;2023-08-06T00:55:29;22.30;99.90
5061;DHT22;2549;52.128;21.068;2023-08-06T00:57:56;22.20;99.90
5061;DHT22;2549;52.128;21.068;2023-08-06T01:00:25;22.20;99.90
5061;DHT22;2549;52.128;21.068;2023-08-06T01:02:53;22.10;99.90
5061;DHT22;2549;52.128;21.068;2023-08-06T01:05:21;22.00;99.90
5061;DHT22;2549;52.128;21.068;2023-08-06T01:11:05;21.90;99.90
5061;DHT22;2549;52.128;21.068;2023-08-06T01:13:47;21.80;99.90
5061;DHT22;2549;52.128;21.068;2023-08-06T01:16:17;22.00;99.90
5061;DHT22;2549;52.128;21.068;2023-08-06T01:18:46;22.10;99.90
5061;DHT22;2549;52.128;21.068;2023-08-06T01:21:13;22.20;99.90
5061;DHT22;2549;52.128;21.068;2023-08-06T01:23:44;22.20;99.90
5061;DHT22;2549;52.128;21.068;2023-08-06T01:28:49;22.20;99.90
5061;DHT22;2549;52.128;21.068;2023-08-06T01:31:26;22.20;99.90
5061;DHT22;2549;52.128;21.068;2023-08-06T01:33:54;22.20;99.90
5061;DHT22;2549;52.128;21.068;2023-08-06T01:36:23;22.20;99.90
5061;DHT22;2549;52.128;21.068;2023-08-06T01:38:52;22.20;99.90
5061;DHT22;2549;52.128;21.068;2023-08-06T01:41:19;22.20;99.90
5061;DHT22;2549;52.128;21.068;2023-08-06T01:43:46;22.20;99.90
5061;DHT22;2549;52.128;21.068;2023-08-06T01:46:13;22.30;99.90
5061;DHT22;2549;52.128;21.068;2023-08-06T01:48:40;22.30;99.90
5061;DHT22;2549;52.128;21.068;2023-08-06T01:51:07;22.20;99.90
5061;DHT22;2549;52.128;21.068;2023-08-06T01:53:34;22.20;99.90
5061;DHT22;2549;52.128;21.068;2023-08-06T01:56:01;22.20;99.90
5061;DHT22;2549;52.128;21.068;2023-08-06T01:58:28;22.20;99.90
5061;DHT22;2549;52.128;21.068;2023-08-06T02:00:55;22.20;99.90
5061;DHT22;2549;52.128;21.068;2023-08-06T02:03:21;22.30;99.90
5061;DHT22;2549;52.128;21.068;2023-08-06T02:05:48;22.30;99.90
5061;DHT22;2549;52.128;21.068;2023-08-06T02:08:15;22.30;99.90
5061;DHT22;2549;52.128;21.068;2023-08-06T02:10:42;22.30;99.90
5061;DHT22;2549;52.128;21.068;2023-08-06T02:13:09;22.30;99.90
5061;DHT22;2549;52.128;21.068;2023-08-06T02:15:41;22.30;99.90
5061;DHT22;2549;52.128;21.068;2023-08-06T02:18:08;22.20;99.90
5061;DHT22;2549;52.128;21.068;2023-08-06T02:20:35;22.20;99.90
5061;DHT22;2549;52.128;21.068;2023-08-06T02:23:01;22.30;99.90
5061;DHT22;2549;52.128;21.068;2023-08-06T02:25:28;22.30;99.90
5061;DHT22;2549;52.128;21.068;2023-08-06T02:27:55;22.20;99.90
5061;DHT22;2549;52.128;21.068;2023-08-06T02:30:22;22.20;99.90
5061;DHT22;2549;52.128;21.068;2023-08-06T02:32:49;22.20;99.90
5061;DHT22;2549;52.128;21.068;2023-08-06T02:35:16;22.20;99.90
5061;DHT22;2549;52.128;21.068;2023-08-06T02:37:43;22.20;99.90
5061;DHT22;2549;52.128;21.068;2023-08-06T02:40:10;22.20;99.90
5061;DHT22;2549;52.128;21.068;2023-08-06T02:42:37;22.20;99.90
5061;DHT22;2549;52.128;21.068;2023-08-06T02:45:04;22.20;99.90
5061;DHT22;2549;52.128;21.068;2023-08-06T02:47:31;22.20;99.90
5061;DHT22;2549;52.128;21.068;2023-08-06T02:49:58;22.30;99.90
5061;DHT22;2549;52.128;21.068;2023-08-06T02:52:25;22.30;99.90
5061;DHT22;2549;52.128;21.068;2023-08-06T02:54:52;22.30;99.90
5061;DHT22;2549;52.128;21.068;2023-08-06T02:57:19;22.20;99.90
5061;DHT22;2549;52.128;21.068;2023-08-06T02:59:46;22.20;99.90
5061;DHT22;2549;52.128;21.068;2023-08-06T03:02:13;22.20;99.90
5061;DHT22;2549;52.128;21.068;2023-08-06T03:04:40;22.20;99.90
5061;DHT22;2549;52.128;21.068;2023-08-06T03:07:06;22.20;99.90
5061;DHT22;2549;52.128;21.068;2023-08-06T03:09:33;22.20;99.90
5061;DHT22;2549;52.128;21.068;2023-08-06T03:12:00;22.20;99.90
5061;DHT22;2549;52.128;21.068;2023-08-06T03:14:27;22.20;99.90
5061;DHT22;2549;52.128;21.068;2023-08-06T03:16:54;22.20;99.90
5061;DHT22;2549;52.128;21.068;2023-08-06T03:19:21;22.20;99.90
5061;DHT22;2549;52.128;21.068;2023-08-06T03:21:48;22.20;99.90
5061;DHT22;2549;52.128;21.068;2023-08-06T03:24:15;22.20;99.90
5061;DHT22;2549;52.128;21.068;2023-08-06T03:26:42;22.20;99.90
5061;DHT22;2549;52.128;21.068;2023-08-06T03:29:09;22.20;99.90
5061;DHT22;2549;52.128;21.068;2023-08-06T03:31:36;22.20;99.90
5061;DHT22;2549;52.128;21.068;2023-08-06T03:34:03;22.10;99.90
5061;DHT22;2549;52.128;21.068;2023-08-06T03:36:30;22.20;99.90
5061;DHT22;2549;52.128;21.068;2023-08-06T03:38:56;22.20;99.90
5061;DHT22;2549;52.128;21.068;2023-08-06T03:41:23;22.20;99.90
5061;DHT22;2549;52.128;21.068;2023-08-06T03:43:50;22.20;99.90
5061;DHT22;2549;52.128;21.068;2023-08-06T03:46:17;22.20;99.90
5061;DHT22;2549;52.128;21.068;2023-08-06T03:48:44;22.20;99.90
5061;DHT22;2549;52.128;21.068;2023-08-06T03:51:11;22.20;99.90
5061;DHT22;2549;52.128;21.068;2023-08-06T03:53:38;22.20;99.90
5061;DHT22;2549;52.128;21.068;2023-08-06T03:56:05;22.20;99.90
5061;DHT22;2549;52.128;21.068;2023-08-06T03:58:31;22.20;99.90
5061;DHT22;2549;52.128;21.068;2023-08-06T04:01:02;22.20;99.90
5061;DHT22;2549;52.128;21.068;2023-08-06T04:03:30;22.20;99.90
5061;DHT22;2549;52.128;21.068;2023-08-06T04:05:57;22.20;99.90
5061;DHT22;2549;52.128;21.068;2023-08-06T04:08:24;22.20;99.90
5061;DHT22;2549;52.128;21.068;2023-08-06T04:10:54;22.20;99.90
5061;DHT22;2549;52.128;21.068;2023-08-06T04:13:23;22.20;99.90
5061;DHT22;2549;52.128;21.068;2023-08-06T04:15:50;22.20;99.90
5061;DHT22;2549;52.128;21.068;2023-08-06T04:18:17;22.30;99.90
5061;DHT22;2549;52.128;21.068;2023-08-06T04:20:45;22.30;99.90
5061;DHT22;2549;52.128;21.068;2023-08-06T04:23:12;22.20;99.90
5061;DHT22;2549;52.128;21.068;2023-08-06T04:25:39;22.20;99.90
5061;DHT22;2549;52.128;21.068;2023-08-06T04:28:07;22.30;99.90
5061;DHT22;2549;52.128;21.068;2023-08-06T04:30:34;22.30;99.90
5061;DHT22;2549;52.128;21.068;2023-08-06T04:33:01;22.30;99.90
5061;DHT22;2549;52.128;21.068;2023-08-06T04:35:28;22.30;99.90
5061;DHT22;2549;52.128;21.068;2023-08-06T04:37:55;22.40;99.90
5061;DHT22;2549;52.128;21.068;2023-08-06T04:40:22;22.40;99.90
5061;DHT22;2549;52.128;21.068;2023-08-06T04:42:48;22.40;99.90
5061;DHT22;2549;52.128;21.068;2023-08-06T04:45:15;22.40;99.90
5061;DHT22;2549;52.128;21.068;2023-08-06T04:47:42;22.40;99.90
5061;DHT22;2549;52.128;21.068;2023-08-06T04:50:09;22.50;99.90
5061;DHT22;2549;52.128;21.068;2023-08-06T04:52:37;22.50;99.90
5061;DHT22;2549;52.128;21.068;2023-08-06T04:55:04;22.50;99.90
5061;DHT22;2549;52.128;21.068;2023-08-06T04:57:33;22.60;99.90
5061;DHT22;2549;52.128;21.068;2023-08-06T05:00:00;22.60;99.90
5061;DHT22;2549;52.128;21.068;2023-08-06T05:02:26;22.60;99.90
5061;DHT22;2549;52.128;21.068;2023-08-06T05:04:53;22.70;99.90
5061;DHT22;2549;52.128;21.068;2023-08-06T05:07:20;22.80;99.90
5061;DHT22;2549;52.128;21.068;2023-08-06T05:09:47;22.70;99.90
5061;DHT22;2549;52.128;21.068;2023-08-06T05:12:14;22.80;99.90
5061;DHT22;2549;52.128;21.068;2023-08-06T05:14:41;22.80;99.90
5061;DHT22;2549;52.128;21.068;2023-08-06T05:17:08;22.80;99.90
5061;DHT22;2549;52.128;21.068;2023-08-06T05:19:35;22.90;99.90
5061;DHT22;2549;52.128;21.068;2023-08-06T05:22:01;22.90;99.90
5061;DHT22;2549;52.128;21.068;2023-08-06T05:24:28;23.00;99.90
5061;DHT22;2549;52.128;21.068;2023-08-06T05:26:55;23.00;99.90
5061;DHT22;2549;52.128;21.068;2023-08-06T05:29:22;23.10;99.90
5061;DHT22;2549;52.128;21.068;2023-08-06T05:31:49;23.10;99.90
5061;DHT22;2549;52.128;21.068;2023-08-06T05:34:16;23.20;99.90
5061;DHT22;2549;52.128;21.068;2023-08-06T05:36:43;23.20;99.90
5061;DHT22;2549;52.128;21.068;2023-08-06T05:39:10;23.30;99.90
5061;DHT22;2549;52.128;21.068;2023-08-06T05:41:37;23.30;99.90
5061;DHT22;2549;52.128;21.068;2023-08-06T05:44:04;23.30;99.90
5061;DHT22;2549;52.128;21.068;2023-08-06T05:46:31;23.30;99.90
5061;DHT22;2549;52.128;21.068;2023-08-06T05:48:57;23.30;99.90
5061;DHT22;2549;52.128;21.068;2023-08-06T05:51:26;23.40;99.90
5061;DHT22;2549;52.128;21.068;2023-08-06T05:53:53;23.40;99.90
5061;DHT22;2549;52.128;21.068;2023-08-06T05:56:20;23.50;99.90
5061;DHT22;2549;52.128;21.068;2023-08-06T05:58:47;23.50;99.90
5061;DHT22;2549;52.128;21.068;2023-08-06T06:01:16;23.60;99.90
5061;DHT22;2549;52.128;21.068;2023-08-06T06:03:43;23.60;99.90
5061;DHT22;2549;52.128;21.068;2023-08-06T06:06:10;23.70;99.90
5061;DHT22;2549;52.128;21.068;2023-08-06T06:08:37;23.70;99.90
5061;DHT22;2549;52.128;21.068;2023-08-06T06:11:04;23.70;99.90
5061;DHT22;2549;52.128;21.068;2023-08-06T06:13:31;23.80;99.90
5061;DHT22;2549;52.128;21.068;2023-08-06T06:15:57;23.70;99.90
5061;DHT22;2549;52.128;21.068;2023-08-06T06:18:24;23.70;99.90
5061;DHT22;2549;52.128;21.068;2023-08-06T06:20:52;23.80;99.90
5061;DHT22;2549;52.128;21.068;2023-08-06T06:23:18;23.70;99.90
5061;DHT22;2549;52.128;21.068;2023-08-06T06:25:50;23.80;99.90
5061;DHT22;2549;52.128;21.068;2023-08-06T06:28:19;23.80;99.90
5061;DHT22;2549;52.128;21.068;2023-08-06T06:30:47;24.00;99.90
5061;DHT22;2549;52.128;21.068;2023-08-06T06:33:14;24.00;99.90
5061;DHT22;2549;52.128;21.068;2023-08-06T06:35:41;24.10;99.90
5061;DHT22;2549;52.128;21.068;2023-08-06T06:38:08;24.00;99.90
5061;DHT22;2549;52.128;21.068;2023-08-06T06:40:35;23.90;99.90
5061;DHT22;2549;52.128;21.068;2023-08-06T06:43:02;24.00;99.90
5061;DHT22;2549;52.128;21.068;2023-08-06T06:45:29;24.10;99.90
5061;DHT22;2549;52.128;21.068;2023-08-06T06:47:56;24.20;99.90
5061;DHT22;2549;52.128;21.068;2023-08-06T06:50:22;24.20;99.90
5061;DHT22;2549;52.128;21.068;2023-08-06T06:52:50;24.30;99.90
5061;DHT22;2549;52.128;21.068;2023-08-06T06:55:17;24.30;99.90
5061;DHT22;2549;52.128;21.068;2023-08-06T06:57:44;24.30;99.90
5061;DHT22;2549;52.128;21.068;2023-08-06T07:00:11;24.30;99.90
5061;DHT22;2549;52.128;21.068;2023-08-06T07:02:38;24.30;99.90
5061;DHT22;2549;52.128;21.068;2023-08-06T07:05:06;24.30;99.90
5061;DHT22;2549;52.128;21.068;2023-08-06T07:07:34;24.40;99.90
5061;DHT22;2549;52.128;21.068;2023-08-06T07:10:01;24.40;99.90
5061;DHT22;2549;52.128;21.068;2023-08-06T07:12:29;24.40;99.90
5061;DHT22;2549;52.128;21.068;2023-08-06T07:14:56;24.50;99.90
5061;DHT22;2549;52.128;21.068;2023-08-06T07:17:23;24.60;99.90
5061;DHT22;2549;52.128;21.068;2023-08-06T07:19:50;24.60;99.90
5061;DHT22;2549;52.128;21.068;2023-08-06T07:22:17;24.60;99.90
5061;DHT22;2549;52.128;21.068;2023-08-06T07:24:43;24.70;99.90
5061;DHT22;2549;52.128;21.068;2023-08-06T07:27:10;24.70;99.90
5061;DHT22;2549;52.128;21.068;2023-08-06T07:29:37;24.80;99.90
5061;DHT22;2549;52.128;21.068;2023-08-06T07:32:06;24.80;99.90
5061;DHT22;2549;52.128;21.068;2023-08-06T07:34:33;24.80;99.90
5061;DHT22;2549;52.128;21.068;2023-08-06T07:37:00;24.80;99.90
5061;DHT22;2549;52.128;21.068;2023-08-06T07:39:27;24.90;99.90
5061;DHT22;2549;52.128;21.068;2023-08-06T07:41:55;25.00;99.90
5061;DHT22;2549;52.128;21.068;2023-08-06T07:44:22;24.90;99.90
5061;DHT22;2549;52.128;21.068;2023-08-06T07:46:49;25.00;99.90
5061;DHT22;2549;52.128;21.068;2023-08-06T07:49:16;25.10;99.90
5061;DHT22;2549;52.128;21.068;2023-08-06T07:51:43;25.20;99.90
5061;DHT22;2549;52.128;21.068;2023-08-06T07:54:10;25.10;99.90
5061;DHT22;2549;52.128;21.068;2023-08-06T07:56:36;25.20;99.90
5061;DHT22;2549;52.128;21.068;2023-08-06T07:59:04;25.30;99.90
5061;DHT22;2549;52.128;21.068;2023-08-06T08:01:30;25.30;99.90
5061;DHT22;2549;52.128;21.068;2023-08-06T08:03:57;25.40;99.90
5061;DHT22;2549;52.128;21.068;2023-08-06T08:06:24;25.40;99.90
5061;DHT22;2549;52.128;21.068;2023-08-06T08:08:51;25.40;99.90
5061;DHT22;2549;52.128;21.068;2023-08-06T08:11:18;25.50;99.90
5061;DHT22;2549;52.128;21.068;2023-08-06T08:13:45;25.40;99.90
5061;DHT22;2549;52.128;21.068;2023-08-06T08:16:12;25.50;99.90
5061;DHT22;2549;52.128;21.068;2023-08-06T08:18:39;25.50;99.90
5061;DHT22;2549;52.128;21.068;2023-08-06T08:21:06;25.50;99.90
5061;DHT22;2549;52.128;21.068;2023-08-06T08:23:33;25.60;99.90
5061;DHT22;2549;52.128;21.068;2023-08-06T08:26:00;25.60;99.90
5061;DHT22;2549;52.128;21.068;2023-08-06T08:28:28;25.70;99.90
5061;DHT22;2549;52.128;21.068;2023-08-06T08:30:55;25.70;99.90
5061;DHT22;2549;52.128;21.068;2023-08-06T08:33:22;25.70;99.90
5061;DHT22;2549;52.128;21.068;2023-08-06T08:35:49;25.80;99.90
5061;DHT22;2549;52.128;21.068;2023-08-06T08:38:16;25.90;99.90
5061;DHT22;2549;52.128;21.068;2023-08-06T08:40:46;25.90;99.90
5061;DHT22;2549;52.128;21.068;2023-08-06T08:43:15;25.90;99.90
5061;DHT22;2549;52.128;21.068;2023-08-06T08:45:42;26.00;99.90
5061;DHT22;2549;52.128;21.068;2023-08-06T08:48:12;26.00;99.90
5061;DHT22;2549;52.128;21.068;2023-08-06T08:50:46;26.20;99.90
5061;DHT22;2549;52.128;21.068;2023-08-06T08:53:14;26.20;99.90
5061;DHT22;2549;52.128;21.068;2023-08-06T08:55:43;26.30;99.90
5061;DHT22;2549;52.128;21.068;2023-08-06T08:58:11;26.40;99.90
5061;DHT22;2549;52.128;21.068;2023-08-06T09:00:39;26.40;99.90
5061;DHT22;2549;52.128;21.068;2023-08-06T09:03:07;26.40;99.90
5061;DHT22;2549;52.128;21.068;2023-08-06T09:05:35;26.40;99.90
5061;DHT22;2549;52.128;21.068;2023-08-06T09:08:04;26.50;99.90
5061;DHT22;2549;52.128;21.068;2023-08-06T09:10:31;26.50;99.90
5061;DHT22;2549;52.128;21.068;2023-08-06T09:12:58;26.60;99.90
5061;DHT22;2549;52.128;21.068;2023-08-06T09:15:27;26.70;99.90
5061;DHT22;2549;52.128;21.068;2023-08-06T09:17:55;26.80;99.90
5061;DHT22;2549;52.128;21.068;2023-08-06T09:20:22;26.80;99.90
5061;DHT22;2549;52.128;21.068;2023-08-06T09:22:49;26.80;99.90
5061;DHT22;2549;52.128;21.068;2023-08-06T09:25:24;26.80;99.90
5061;DHT22;2549;52.128;21.068;2023-08-06T09:27:52;26.90;99.90
5061;DHT22;2549;52.128;21.068;2023-08-06T09:30:30;26.90;99.90
5061;DHT22;2549;52.128;21.068;2023-08-06T09:32:58;26.90;99.90
5061;DHT22;2549;52.128;21.068;2023-08-06T09:35:31;27.10;99.90
5061;DHT22;2549;52.128;21.068;2023-08-06T09:38:09;27.20;99.90
5061;DHT22;2549;52.128;21.068;2023-08-06T09:40:38;27.20;99.90
5061;DHT22;2549;52.128;21.068;2023-08-06T09:43:05;27.30;99.90
5061;DHT22;2549;52.128;21.068;2023-08-06T09:45:37;27.30;99.90
5061;DHT22;2549;52.128;21.068;2023-08-06T09:48:09;27.30;99.90
5061;DHT22;2549;52.128;21.068;2023-08-06T09:50:37;27.40;99.90
5061;DHT22;2549;52.128;21.068;2023-08-06T09:53:06;27.50;99.90
5061;DHT22;2549;52.128;21.068;2023-08-06T09:55:34;27.40;99.90
5061;DHT22;2549;52.128;21.068;2023-08-06T09:58:01;27.40;99.90
5061;DHT22;2549;52.128;21.068;2023-08-06T10:00:29;27.50;99.90
5061;DHT22;2549;52.128;21.068;2023-08-06T10:03:00;27.60;99.90
5061;DHT22;2549;52.128;21.068;2023-08-06T10:05:28;27.70;99.90
5061;DHT22;2549;52.128;21.068;2023-08-06T10:07:57;27.60;99.90
5061;DHT22;2549;52.128;21.068;2023-08-06T10:10:25;27.60;99.90
5061;DHT22;2549;52.128;21.068;2023-08-06T10:12:55;27.70;99.90
5061;DHT22;2549;52.128;21.068;2023-08-06T10:15:28;27.70;99.90
5061;DHT22;2549;52.128;21.068;2023-08-06T10:17:58;27.70;99.90
5061;DHT22;2549;52.128;21.068;2023-08-06T10:20:26;27.80;99.90
5061;DHT22;2549;52.128;21.068;2023-08-06T10:23:04;27.80;99.90
5061;DHT22;2549;52.128;21.068;2023-08-06T10:25:35;27.80;99.90
5061;DHT22;2549;52.128;21.068;2023-08-06T10:28:11;27.80;99.90
5061;DHT22;2549;52.128;21.068;2023-08-06T10:30:46;27.80;99.90
5061;DHT22;2549;52.128;21.068;2023-08-06T10:33:13;27.80;99.90
5061;DHT22;2549;52.128;21.068;2023-08-06T10:35:48;27.90;99.90
5061;DHT22;2549;52.128;21.068;2023-08-06T10:38:18;27.90;99.90
5061;DHT22;2549;52.128;21.068;2023-08-06T10:46:00;28.00;99.90
5061;DHT22;2549;52.128;21.068;2023-08-06T10:51:01;27.90;99.90
5061;DHT22;2549;52.128;21.068;2023-08-06T10:53:28;28.00;99.90
5061;DHT22;2549;52.128;21.068;2023-08-06T10:56:00;28.00;99.90
5061;DHT22;2549;52.128;21.068;2023-08-06T10:58:33;28.10;99.90
5061;DHT22;2549;52.128;21.068;2023-08-06T11:01:00;28.20;99.90
5061;DHT22;2549;52.128;21.068;2023-08-06T11:03:28;28.10;99.90
5061;DHT22;2549;52.128;21.068;2023-08-06T11:05:55;28.20;99.90
5061;DHT22;2549;52.128;21.068;2023-08-06T11:08:29;28.20;99.90
5061;DHT22;2549;52.128;21.068;2023-08-06T11:11:11;28.20;99.90
5061;DHT22;2549;52.128;21.068;2023-08-06T11:13:44;28.20;99.90
5061;DHT22;2549;52.128;21.068;2023-08-06T11:16:18;28.30;99.90
5061;DHT22;2549;52.128;21.068;2023-08-06T11:18:45;28.40;99.90
5061;DHT22;2549;52.128;21.068;2023-08-06T11:21:12;28.40;99.90
5061;DHT22;2549;52.128;21.068;2023-08-06T11:23:40;28.40;99.90
5061;DHT22;2549;52.128;21.068;2023-08-06T11:26:07;28.40;99.90
5061;DHT22;2549;52.128;21.068;2023-08-06T11:28:35;28.40;99.90
5061;DHT22;2549;52.128;21.068;2023-08-06T11:31:02;28.50;99.90
5061;DHT22;2549;52.128;21.068;2023-08-06T11:33:30;28.60;99.90
5061;DHT22;2549;52.128;21.068;2023-08-06T11:35:59;28.60;99.90
5061;DHT22;2549;52.128;21.068;2023-08-06T11:38:28;28.60;99.90
5061;DHT22;2549;52.128;21.068;2023-08-06T11:40:55;28.60;99.90
5061;DHT22;2549;52.128;21.068;2023-08-06T11:43:23;28.70;99.90
5061;DHT22;2549;52.128;21.068;2023-08-06T11:45:50;28.80;99.90
5061;DHT22;2549;52.128;21.068;2023-08-06T11:48:19;28.70;99.90
5061;DHT22;2549;52.128;21.068;2023-08-06T11:50:46;28.80;99.90
5061;DHT22;2549;52.128;21.068;2023-08-06T11:53:14;28.80;99.90
5061;DHT22;2549;52.128;21.068;2023-08-06T11:55:41;28.90;99.90
5061;DHT22;2549;52.128;21.068;2023-08-06T11:58:10;28.90;99.80
5061;DHT22;2549;52.128;21.068;2023-08-06T12:00:42;29.00;98.80
5061;DHT22;2549;52.128;21.068;2023-08-06T12:03:09;29.10;98.50
5061;DHT22;2549;52.128;21.068;2023-08-06T12:05:37;29.10;98.80
5061;DHT22;2549;52.128;21.068;2023-08-06T12:08:05;29.00;99.00
5061;DHT22;2549;52.128;21.068;2023-08-06T12:10:32;29.00;98.40
5061;DHT22;2549;52.128;21.068;2023-08-06T12:13:00;29.00;98.40
5061;DHT22;2549;52.128;21.068;2023-08-06T12:15:27;29.00;98.20
5061;DHT22;2549;52.128;21.068;2023-08-06T12:17:59;29.00;98.60
5061;DHT22;2549;52.128;21.068;2023-08-06T12:20:26;29.00;98.50
5061;DHT22;2549;52.128;21.068;2023-08-06T12:22:55;29.00;98.20
5061;DHT22;2549;52.128;21.068;2023-08-06T12:25:22;29.10;97.90
5061;DHT22;2549;52.128;21.068;2023-08-06T12:27:50;29.00;97.80
5061;DHT22;2549;52.128;21.068;2023-08-06T12:30:17;28.90;97.50
5061;DHT22;2549;52.128;21.068;2023-08-06T12:32:44;28.90;98.20
5061;DHT22;2549;52.128;21.068;2023-08-06T12:35:12;28.90;97.90
5061;DHT22;2549;52.128;21.068;2023-08-06T12:37:40;28.90;98.30
5061;DHT22;2549;52.128;21.068;2023-08-06T12:40:10;29.00;98.00
5061;DHT22;2549;52.128;21.068;2023-08-06T12:42:57;28.90;98.10
5061;DHT22;2549;52.128;21.068;2023-08-06T12:45:28;28.90;97.90
5061;DHT22;2549;52.128;21.068;2023-08-06T12:47:55;28.80;98.10
5061;DHT22;2549;52.128;21.068;2023-08-06T12:50:24;28.80;98.50
5061;DHT22;2549;52.128;21.068;2023-08-06T12:52:51;28.70;98.00
5061;DHT22;2549;52.128;21.068;2023-08-06T12:55:18;28.60;98.30
5061;DHT22;2549;52.128;21.068;2023-08-06T12:57:45;28.60;99.20
5061;DHT22;2549;52.128;21.068;2023-08-06T13:00:25;28.60;98.90
5061;DHT22;2549;52.128;21.068;2023-08-06T13:02:52;28.60;98.90
5061;DHT22;2549;52.128;21.068;2023-08-06T13:05:19;28.60;99.90
5061;DHT22;2549;52.128;21.068;2023-08-06T13:07:46;28.60;99.90
5061;DHT22;2549;52.128;21.068;2023-08-06T13:10:13;28.60;99.90
5061;DHT22;2549;52.128;21.068;2023-08-06T13:12:40;28.50;99.90
5061;DHT22;2549;52.128;21.068;2023-08-06T13:15:08;28.50;99.90
5061;DHT22;2549;52.128;21.068;2023-08-06T13:17:35;28.50;99.90
5061;DHT22;2549;52.128;21.068;2023-08-06T13:20:02;28.40;99.90
5061;DHT22;2549;52.128;21.068;2023-08-06T13:22:30;28.50;99.90
5061;DHT22;2549;52.128;21.068;2023-08-06T13:24:56;28.50;99.90
5061;DHT22;2549;52.128;21.068;2023-08-06T13:27:23;28.60;99.90
5061;DHT22;2549;52.128;21.068;2023-08-06T13:29:50;28.60;99.90
5061;DHT22;2549;52.128;21.068;2023-08-06T13:32:17;28.60;99.90
5061;DHT22;2549;52.128;21.068;2023-08-06T13:34:44;28.60;99.90
5061;DHT22;2549;52.128;21.068;2023-08-06T13:37:11;28.60;99.90
5061;DHT22;2549;52.128;21.068;2023-08-06T13:39:38;28.60;99.90
5061;DHT22;2549;52.128;21.068;2023-08-06T13:42:06;28.70;99.90
5061;DHT22;2549;52.128;21.068;2023-08-06T13:44:50;28.80;99.90
5061;DHT22;2549;52.128;21.068;2023-08-06T13:47:17;28.80;99.90
5061;DHT22;2549;52.128;21.068;2023-08-06T13:49:44;28.80;99.90
5061;DHT22;2549;52.128;21.068;2023-08-06T13:52:29;28.80;99.90
5061;DHT22;2549;52.128;21.068;2023-08-06T13:54:56;28.80;99.90
5061;DHT22;2549;52.128;21.068;2023-08-06T13:57:23;28.80;99.90
5061;DHT22;2549;52.128;21.068;2023-08-06T13:59:50;28.90;99.90
5061;DHT22;2549;52.128;21.068;2023-08-06T14:02:17;28.90;99.10
5061;DHT22;2549;52.128;21.068;2023-08-06T14:04:44;28.90;99.30
5061;DHT22;2549;52.128;21.068;2023-08-06T14:07:14;28.90;99.40
5061;DHT22;2549;52.128;21.068;2023-08-06T14:09:41;28.90;99.30
5061;DHT22;2549;52.128;21.068;2023-08-06T14:12:09;28.90;99.10
5061;DHT22;2549;52.128;21.068;2023-08-06T14:14:36;28.90;99.30
5061;DHT22;2549;52.128;21.068;2023-08-06T14:17:03;29.00;99.10
5061;DHT22;2549;52.128;21.068;2023-08-06T14:19:30;29.00;98.90
5061;DHT22;2549;52.128;21.068;2023-08-06T14:21:57;29.00;98.80
5061;DHT22;2549;52.128;21.068;2023-08-06T14:24:24;29.00;99.10
5061;DHT22;2549;52.128;21.068;2023-08-06T14:26:52;29.00;98.70
5061;DHT22;2549;52.128;21.068;2023-08-06T14:29:21;29.00;98.80
5061;DHT22;2549;52.128;21.068;2023-08-06T14:31:47;29.00;99.10
5061;DHT22;2549;52.128;21.068;2023-08-06T14:34:14;29.00;98.70
5061;DHT22;2549;52.128;21.068;2023-08-06T14:36:41;29.00;98.80
5061;DHT22;2549;52.128;21.068;2023-08-06T14:39:08;29.00;98.20
5061;DHT22;2549;52.128;21.068;2023-08-06T14:41:35;29.10;98.40
5061;DHT22;2549;52.128;21.068;2023-08-06T14:44:02;29.10;97.90
5061;DHT22;2549;52.128;21.068;2023-08-06T14:46:28;29.10;98.10
5061;DHT22;2549;52.128;21.068;2023-08-06T14:48:55;29.10;98.10
5061;DHT22;2549;52.128;21.068;2023-08-06T14:51:22;29.20;98.10
5061;DHT22;2549;52.128;21.068;2023-08-06T14:53:49;29.20;97.70
5061;DHT22;2549;52.128;21.068;2023-08-06T14:56:16;29.20;97.50
5061;DHT22;2549;52.128;21.068;2023-08-06T14:58:43;29.20;97.90
5061;DHT22;2549;52.128;21.068;2023-08-06T15:01:10;29.20;98.20
5061;DHT22;2549;52.128;21.068;2023-08-06T15:03:37;29.20;97.90
5061;DHT22;2549;52.128;21.068;2023-08-06T15:06:04;29.10;98.80
5061;DHT22;2549;52.128;21.068;2023-08-06T15:08:30;29.00;98.90
5061;DHT22;2549;52.128;21.068;2023-08-06T15:10:57;29.00;99.30
5061;DHT22;2549;52.128;21.068;2023-08-06T15:13:24;28.90;99.50
5061;DHT22;2549;52.128;21.068;2023-08-06T15:15:51;29.00;99.70
5061;DHT22;2549;52.128;21.068;2023-08-06T15:18:18;28.90;99.40
5061;DHT22;2549;52.128;21.068;2023-08-06T15:20:46;28.80;99.40
5061;DHT22;2549;52.128;21.068;2023-08-06T15:23:13;28.70;99.50
5061;DHT22;2549;52.128;21.068;2023-08-06T15:25:40;28.70;99.90
5061;DHT22;2549;52.128;21.068;2023-08-06T15:28:07;28.80;99.90
5061;DHT22;2549;52.128;21.068;2023-08-06T15:30:34;28.80;99.60
5061;DHT22;2549;52.128;21.068;2023-08-06T15:33:01;28.60;99.30
5061;DHT22;2549;52.128;21.068;2023-08-06T15:35:29;28.60;99.70
5061;DHT22;2549;52.128;21.068;2023-08-06T15:37:55;28.70;99.60
5061;DHT22;2549;52.128;21.068;2023-08-06T15:40:22;28.60;99.80
5061;DHT22;2549;52.128;21.068;2023-08-06T15:42:49;28.70;99.90
5061;DHT22;2549;52.128;21.068;2023-08-06T15:45:16;28.60;99.80
5061;DHT22;2549;52.128;21.068;2023-08-06T15:47:43;28.60;99.90
5061;DHT22;2549;52.128;21.068;2023-08-06T15:50:10;28.60;99.70
5061;DHT22;2549;52.128;21.068;2023-08-06T15:52:37;28.60;99.60
5061;DHT22;2549;52.128;21.068;2023-08-06T15:55:04;28.60;99.60
5061;DHT22;2549;52.128;21.068;2023-08-06T15:57:33;28.60;99.80
5061;DHT22;2549;52.128;21.068;2023-08-06T16:00:01;28.60;99.50
5061;DHT22;2549;52.128;21.068;2023-08-06T16:02:29;28.60;99.20